Time;durP1;ratioP1;P1;durP2;ratioP2;P2;SDS_P1;SDS_P2;PMS_P1;PMS_P2;Temp;Humidity;BMP_temperature;BMP_pressure;BME280_temperature;BME280_humidity;BME280_pressure;Samples;Min_cycle;Max_cycle;Signal;HPM_P1;HPM_P2
2021/07/13 00:00:13;;;;;;;8.38;7.55;;;;;;;;;;2063165;28;20678;-49
2021/07/13 00:01:13;;;;;;;8.30;7.50;;;;;;;;;;2061506;28;20178;-50
2021/07/13 00:02:13;;;;;;;8.48;7.68;;;;;;;;;;2056408;28;20681;-51
2021/07/13 00:03:14;;;;;;;8.88;7.80;;;;;;;;;;2056763;28;20233;-52
2021/07/13 00:04:14;;;;;;;8.55;7.75;;;;;;;;;;2057026;28;20182;-54
2021/07/13 00:05:15;;;;;;;8.48;7.70;;;;;;;;;;2059130;28;20190;-50
2021/07/13 00:06:16;;;;;;;7.88;7.28;;;;;;;;;;2056663;28;20182;-52
2021/07/13 00:07:16;;;;;;;8.13;7.43;;;;;;;;;;2056545;28;20189;-51
2021/07/13 00:08:16;;;;;;;8.93;8.10;;;;;;;;;;2055537;28;20175;-52
2021/07/13 00:09:18;;;;;;;8.63;7.93;;;;;;;;;;2052451;28;20185;-52
2021/07/13 00:10:19;;;;;;;8.57;7.72;;;;;;;;;;2056580;28;20170;-50
2021/07/13 00:11:20;;;;;;;9.35;8.45;;;;;;;;;;2056340;28;20679;-49
2021/07/13 00:12:20;;;;;;;9.23;8.43;;;;;;;;;;2052605;28;20190;-52
2021/07/13 00:13:22;;;;;;;8.80;7.90;;;;;;;;;;2053373;28;20183;-49
2021/07/13 00:14:23;;;;;;;8.70;7.90;;;;;;;;;;2053859;28;20194;-50
2021/07/13 00:15:23;;;;;;;8.65;7.57;;;;;;;;;;2060473;28;20549;-53
2021/07/13 00:16:23;;;;;;;8.40;7.60;;;;;;;;;;2058207;28;20670;-48
2021/07/13 00:17:24;;;;;;;9.38;8.57;;;;;;;;;;2056406;28;20202;-51
2021/07/13 00:18:24;;;;;;;9.48;8.68;;;;;;;;;;2058365;28;20206;-54
2021/07/13 00:19:24;;;;;;;8.65;7.95;;;;;;;;;;2057685;28;20733;-54
2021/07/13 00:20:25;;;;;;;8.98;8.07;;;;;;;;;;2058062;28;20174;-50
2021/07/13 00:21:25;;;;;;;8.63;7.93;;;;;;;;;;2056230;28;20189;-55
2021/07/13 00:22:25;;;;;;;9.65;8.65;;;;;;;;;;2051240;28;20660;-51
2021/07/13 00:23:26;;;;;;;7.43;6.72;;;;;;;;;;2054328;28;20272;-54
2021/07/13 00:24:26;;;;;;;9.40;8.50;;;;;;;;;;2056808;28;20177;-52
2021/07/13 00:25:27;;;;;;;8.90;8.20;;;;;;;;;;2055624;28;20657;-52
2021/07/13 00:26:27;;;;;;;9.05;8.35;;;;;;;;;;2056484;28;20890;-55
2021/07/13 00:27:27;;;;;;;9.40;8.30;;;;;;;;;;2055122;28;20174;-57
2021/07/13 00:28:28;;;;;;;8.50;7.80;;;;;;;;;;2056565;28;20193;-55
2021/07/13 00:29:28;;;;;;;10.15;8.00;;;;;;;;;;2053805;28;20652;-52
2021/07/13 00:30:28;;;;;;;8.77;8.00;;;;;;;;;;2065274;28;20178;-51
2021/07/13 00:31:29;;;;;;;8.98;8.02;;;;;;;;;;2057411;28;20217;-53
2021/07/13 00:32:29;;;;;;;8.00;7.38;;;;;;;;;;2060521;28;20829;-54
2021/07/13 00:33:29;;;;;;;8.15;7.45;;;;;;;;;;2058643;28;20194;-54
2021/07/13 00:34:30;;;;;;;9.18;8.32;;;;;;;;;;2056378;28;20183;-52
2021/07/13 00:35:30;;;;;;;8.98;8.27;;;;;;;;;;2055684;28;20236;-56
2021/07/13 00:36:30;;;;;;;9.13;8.30;;;;;;;;;;2051382;28;20183;-54
2021/07/13 00:37:31;;;;;;;8.10;7.40;;;;;;;;;;2056074;28;20647;-52
2021/07/13 00:38:31;;;;;;;8.70;7.97;;;;;;;;;;2057282;28;20647;-53
2021/07/13 00:39:31;;;;;;;9.02;8.27;;;;;;;;;;2057256;28;20181;-52
2021/07/13 00:40:31;;;;;;;9.35;8.00;;;;;;;;;;2058535;28;20178;-51
2021/07/13 00:41:36;;;;;;;9.45;7.95;;;;;;;;;;2049824;28;20270;-54
2021/07/13 00:42:36;;;;;;;9.02;8.18;;;;;;;;;;2056275;28;20186;-52
2021/07/13 00:43:36;;;;;;;9.68;8.70;;;;;;;;;;2056380;28;20253;-51
2021/07/13 00:44:36;;;;;;;9.90;9.05;;;;;;;;;;2056069;28;20190;-54
2021/07/13 00:45:37;;;;;;;9.82;8.93;;;;;;;;;;2057025;28;20189;-54
2021/07/13 00:46:38;;;;;;;9.48;8.57;;;;;;;;;;2057191;28;20261;-55
2021/07/13 00:47:39;;;;;;;10.45;9.32;;;;;;;;;;2057116;28;20285;-52
2021/07/13 00:48:39;;;;;;;11.07;8.95;;;;;;;;;;2057342;28;20174;-53
2021/07/13 00:49:44;;;;;;;9.75;8.85;;;;;;;;;;2056770;28;20562;-54
2021/07/13 00:50:45;;;;;;;9.68;8.77;;;;;;;;;;2048688;29;20636;-52
2021/07/13 00:51:46;;;;;;;9.80;8.98;;;;;;;;;;2048091;28;20270;-52
2021/07/13 00:52:46;;;;;;;9.35;8.52;;;;;;;;;;2064674;28;20595;-55
2021/07/13 00:53:47;;;;;;;9.45;8.63;;;;;;;;;;2057072;28;20186;-53
2021/07/13 00:54:48;;;;;;;9.60;8.80;;;;;;;;;;2061437;28;20181;-55
2021/07/13 00:55:48;;;;;;;10.13;9.02;;;;;;;;;;2055779;28;20179;-51
2021/07/13 00:56:50;;;;;;;9.10;8.30;;;;;;;;;;2056312;28;20209;-50
2021/07/13 00:57:50;;;;;;;9.25;8.35;;;;;;;;;;2055585;28;20286;-51
2021/07/13 00:58:50;;;;;;;10.75;9.43;;;;;;;;;;2056818;28;20240;-52
2021/07/13 00:59:51;;;;;;;8.90;8.10;;;;;;;;;;2060446;28;20899;-51
2021/07/13 01:00:51;;;;;;;8.75;8.00;;;;;;;;;;2056516;28;20170;-56
2021/07/13 01:01:52;;;;;;;10.05;8.68;;;;;;;;;;2053336;28;20269;-56
2021/07/13 01:02:55;;;;;;;9.30;8.40;;;;;;;;;;2065270;28;20185;-52
2021/07/13 01:03:56;;;;;;;9.55;8.65;;;;;;;;;;2070507;28;20200;-57
2021/07/13 01:04:58;;;;;;;10.18;9.10;;;;;;;;;;2049106;28;20226;-54
2021/07/13 01:05:59;;;;;;;10.60;9.70;;;;;;;;;;2048544;28;20171;-51
2021/07/13 01:07:24;;;;;;;10.73;9.50;;;;;;;;;;2048762;28;20250;-52
2021/07/13 01:08:24;;;;;;;10.32;9.23;;;;;;;;;;2054160;28;20166;-53
2021/07/13 01:09:44;;;;;;;9.20;8.40;;;;;;;;;;2057159;28;20182;-56
2021/07/13 01:11:11;;;;;;;9.27;8.48;;;;;;;;;;2045267;28;20193;-55
2021/07/13 01:12:14;;;;;;;8.95;8.15;;;;;;;;;;2032579;29;20192;-50
2021/07/13 01:13:44;;;;;;;10.43;8.98;;;;;;;;;;2052146;28;20677;-53
2021/07/13 01:14:55;;;;;;;12.65;9.45;;;;;;;;;;2047031;28;20323;-50
2021/07/13 01:16:14;;;;;;;10.07;9.07;;;;;;;;;;2049931;28;20158;-49
2021/07/13 01:17:16;;;;;;;10.15;9.18;;;;;;;;;;2057093;28;20681;-49
2021/07/13 01:18:24;;;;;;;10.80;9.70;;;;;;;;;;2056473;28;20170;-49
2021/07/13 01:19:39;;;;;;;10.00;9.10;;;;;;;;;;2058391;28;20185;-50
2021/07/13 01:20:58;;;;;;;10.13;9.00;;;;;;;;;;2058449;28;20255;-51
2021/07/13 01:21:59;;;;;;;10.27;9.38;;;;;;;;;;2055740;28;20177;-50
2021/07/13 01:23:23;;;;;;;9.75;8.85;;;;;;;;;;2055477;28;20171;-52
2021/07/13 01:24:43;;;;;;;10.38;9.48;;;;;;;;;;2056627;28;20216;-53
2021/07/13 01:25:46;;;;;;;10.18;9.18;;;;;;;;;;2055028;28;20186;-52
2021/07/13 01:27:05;;;;;;;10.13;9.13;;;;;;;;;;2058859;28;20169;-50
2021/07/13 01:28:07;;;;;;;10.00;9.00;;;;;;;;;;2058660;28;20202;-53
2021/07/13 01:29:09;;;;;;;9.95;8.98;;;;;;;;;;2059550;28;20297;-45
2021/07/13 01:30:11;;;;;;;10.05;9.07;;;;;;;;;;2060060;28;20193;-52
2021/07/13 01:31:13;;;;;;;10.05;9.15;;;;;;;;;;2054320;28;20180;-48
2021/07/13 01:32:18;;;;;;;10.27;9.43;;;;;;;;;;2059709;28;20269;-51
2021/07/13 01:33:23;;;;;;;10.25;9.13;;;;;;;;;;2058085;28;20177;-53
2021/07/13 01:34:25;;;;;;;10.63;9.63;;;;;;;;;;2058967;28;20674;-51
2021/07/13 01:35:29;;;;;;;9.80;8.95;;;;;;;;;;2059487;28;20237;-56
2021/07/13 01:36:36;;;;;;;10.68;9.57;;;;;;;;;;2059641;28;20182;-51
2021/07/13 01:37:37;;;;;;;10.85;9.25;;;;;;;;;;2052291;28;20229;-54
2021/07/13 01:38:38;;;;;;;10.50;9.55;;;;;;;;;;2071198;28;20234;-49
2021/07/13 01:39:39;;;;;;;10.18;9.18;;;;;;;;;;2068834;28;20180;-55
2021/07/13 01:40:41;;;;;;;10.05;9.15;;;;;;;;;;2057358;28;20549;-51
2021/07/13 01:41:41;;;;;;;10.43;9.48;;;;;;;;;;2058958;28;20690;-52
2021/07/13 01:42:42;;;;;;;9.15;8.32;;;;;;;;;;2067351;28;20209;-50
2021/07/13 01:43:43;;;;;;;8.95;8.23;;;;;;;;;;2066465;28;20201;-52
2021/07/13 01:44:44;;;;;;;9.82;8.93;;;;;;;;;;2053095;28;20175;-50
2021/07/13 01:45:45;;;;;;;11.63;9.27;;;;;;;;;;2050968;28;20199;-52
2021/07/13 01:46:46;;;;;;;9.40;8.50;;;;;;;;;;2052709;28;20182;-49
2021/07/13 01:47:47;;;;;;;10.77;8.85;;;;;;;;;;2051937;28;20220;-50
2021/07/13 01:48:48;;;;;;;11.60;10.50;;;;;;;;;;2056595;28;20178;-50
2021/07/13 01:49:49;;;;;;;10.45;9.35;;;;;;;;;;2058606;28;20229;-54
2021/07/13 01:50:51;;;;;;;9.65;8.77;;;;;;;;;;2061656;28;20161;-50
2021/07/13 01:51:52;;;;;;;10.15;9.25;;;;;;;;;;2058655;28;20178;-54
2021/07/13 01:52:52;;;;;;;9.93;9.02;;;;;;;;;;2058182;28;20174;-51
2021/07/13 01:53:53;;;;;;;10.80;9.80;;;;;;;;;;2059725;28;20174;-50
2021/07/13 01:54:53;;;;;;;10.43;9.43;;;;;;;;;;2058581;28;20220;-54
2021/07/13 01:55:55;;;;;;;9.93;9.02;;;;;;;;;;2058268;28;20178;-50
2021/07/13 01:56:56;;;;;;;10.43;9.38;;;;;;;;;;2059549;28;20174;-49
2021/07/13 01:57:57;;;;;;;10.32;9.45;;;;;;;;;;2059279;28;20667;-53
2021/07/13 01:58:58;;;;;;;11.27;10.27;;;;;;;;;;2057632;28;20196;-54
2021/07/13 02:00:00;;;;;;;10.95;9.88;;;;;;;;;;2062521;28;20179;-49
2021/07/13 02:01:11;;;;;;;11.35;10.23;;;;;;;;;;2056821;28;20559;-52
2021/07/13 02:02:11;;;;;;;12.10;10.95;;;;;;;;;;2061901;28;20221;-51
2021/07/13 02:03:12;;;;;;;12.10;11.00;;;;;;;;;;2060719;28;20194;-54
2021/07/13 02:04:13;;;;;;;11.32;10.32;;;;;;;;;;2063380;28;20236;-52
2021/07/13 02:05:15;;;;;;;11.50;10.50;;;;;;;;;;2055907;28;20667;-56
2021/07/13 02:06:16;;;;;;;10.23;9.43;;;;;;;;;;2059323;28;20173;-49
2021/07/13 02:07:16;;;;;;;11.38;10.20;;;;;;;;;;2055880;28;20722;-51
2021/07/13 02:08:18;;;;;;;10.27;9.43;;;;;;;;;;2062006;28;20177;-50
2021/07/13 02:09:18;;;;;;;12.23;9.93;;;;;;;;;;2055727;28;20178;-50
2021/07/13 02:10:19;;;;;;;10.23;9.32;;;;;;;;;;2058257;28;20194;-49
2021/07/13 02:11:20;;;;;;;11.75;10.65;;;;;;;;;;2059055;28;20301;-51
2021/07/13 02:12:20;;;;;;;10.73;9.82;;;;;;;;;;2054665;28;20190;-51
2021/07/13 02:13:20;;;;;;;11.23;10.23;;;;;;;;;;2056548;28;20596;-56
2021/07/13 02:14:21;;;;;;;10.95;9.80;;;;;;;;;;2059464;28;20174;-56
2021/07/13 02:15:21;;;;;;;11.23;10.13;;;;;;;;;;2062422;28;20217;-53
2021/07/13 02:16:21;;;;;;;12.10;10.90;;;;;;;;;;2054020;28;20206;-56
2021/07/13 02:17:24;;;;;;;10.90;9.90;;;;;;;;;;2061301;28;20194;-55
2021/07/13 02:18:25;;;;;;;10.68;9.77;;;;;;;;;;2056490;28;20182;-53
2021/07/13 02:19:26;;;;;;;10.73;9.73;;;;;;;;;;2061252;28;20577;-52
2021/07/13 02:20:27;;;;;;;11.27;10.27;;;;;;;;;;2056255;28;20230;-51
2021/07/13 02:21:27;;;;;;;11.52;10.63;;;;;;;;;;2059215;28;20206;-55
2021/07/13 02:22:28;;;;;;;11.45;10.35;;;;;;;;;;2055905;28;20830;-54
2021/07/13 02:23:28;;;;;;;11.40;10.40;;;;;;;;;;2058777;28;20595;-53
2021/07/13 02:24:29;;;;;;;11.93;10.82;;;;;;;;;;2054333;28;20183;-52
2021/07/13 02:25:29;;;;;;;10.70;9.65;;;;;;;;;;2056667;28;20194;-54
2021/07/13 02:26:36;;;;;;;10.18;9.18;;;;;;;;;;2053173;28;20182;-55
2021/07/13 02:27:40;;;;;;;11.02;9.93;;;;;;;;;;2058194;28;20313;-52
2021/07/13 02:28:45;;;;;;;11.07;10.00;;;;;;;;;;2051966;28;20270;-56
2021/07/13 02:29:49;;;;;;;12.18;10.98;;;;;;;;;;2058565;28;20835;-53
2021/07/13 02:30:51;;;;;;;10.85;9.65;;;;;;;;;;2058719;28;20169;-57
2021/07/13 02:31:54;;;;;;;11.63;10.05;;;;;;;;;;2057723;28;20177;-58
2021/07/13 02:32:59;;;;;;;11.43;10.35;;;;;;;;;;2061771;28;20181;-55
2021/07/13 02:34:10;;;;;;;13.02;10.13;;;;;;;;;;2059665;28;20182;-56
2021/07/13 02:35:11;;;;;;;10.82;9.93;;;;;;;;;;2059564;28;20196;-54
2021/07/13 02:36:14;;;;;;;11.38;10.38;;;;;;;;;;2058580;28;20174;-55
2021/07/13 02:37:15;;;;;;;10.40;9.40;;;;;;;;;;2052352;28;20179;-53
2021/07/13 02:38:16;;;;;;;9.85;9.05;;;;;;;;;;2058128;28;20194;-54
2021/07/13 02:39:17;;;;;;;11.65;10.38;;;;;;;;;;2057054;28;20645;-57
2021/07/13 02:40:18;;;;;;;11.27;10.18;;;;;;;;;;2059202;28;20182;-55
2021/07/13 02:41:18;;;;;;;10.60;9.60;;;;;;;;;;2061747;28;20785;-57
2021/07/13 02:42:18;;;;;;;10.95;9.82;;;;;;;;;;2059608;28;20229;-54
2021/07/13 02:43:20;;;;;;;11.23;10.13;;;;;;;;;;2056892;28;20289;-48
2021/07/13 02:44:22;;;;;;;10.50;9.60;;;;;;;;;;2055027;28;20202;-55
2021/07/13 02:45:22;;;;;;;10.35;9.40;;;;;;;;;;2060114;28;20175;-53
2021/07/13 02:46:23;;;;;;;11.00;9.90;;;;;;;;;;2057901;28;20574;-54
2021/07/13 02:47:23;;;;;;;10.95;9.85;;;;;;;;;;2057399;28;20219;-54
2021/07/13 02:48:24;;;;;;;12.02;10.80;;;;;;;;;;2057297;28;20174;-55
2021/07/13 02:49:30;;;;;;;10.93;9.77;;;;;;;;;;2057311;28;20210;-55
2021/07/13 02:50:31;;;;;;;10.13;9.23;;;;;;;;;;2057422;28;20185;-55
2021/07/13 02:51:31;;;;;;;11.13;10.02;;;;;;;;;;2056170;28;20250;-57
2021/07/13 02:52:32;;;;;;;11.48;10.18;;;;;;;;;;2055827;28;20181;-55
2021/07/13 02:53:33;;;;;;;10.65;9.50;;;;;;;;;;2055750;28;20221;-53
2021/07/13 02:54:33;;;;;;;11.10;9.98;;;;;;;;;;2056720;28;20202;-55
2021/07/13 02:55:34;;;;;;;10.98;9.98;;;;;;;;;;2052885;28;20202;-50
2021/07/13 02:56:36;;;;;;;11.70;10.68;;;;;;;;;;2056796;28;20655;-51
2021/07/13 02:57:37;;;;;;;11.15;10.15;;;;;;;;;;2059271;28;20197;-51
2021/07/13 02:58:39;;;;;;;10.52;9.48;;;;;;;;;;2064031;28;20667;-52
2021/07/13 02:59:40;;;;;;;10.38;9.48;;;;;;;;;;2060709;28;20185;-51
2021/07/13 03:00:40;;;;;;;10.50;9.55;;;;;;;;;;2057417;28;20265;-52
2021/07/13 03:01:42;;;;;;;10.23;9.27;;;;;;;;;;2060859;28;20186;-53
2021/07/13 03:02:44;;;;;;;11.02;10.02;;;;;;;;;;2062933;28;20178;-53
2021/07/13 03:03:45;;;;;;;10.13;9.23;;;;;;;;;;2059114;28;20313;-55
2021/07/13 03:04:45;;;;;;;9.95;9.02;;;;;;;;;;2051910;28;20789;-54
2021/07/13 03:05:48;;;;;;;10.32;9.35;;;;;;;;;;2059826;28;20182;-53
2021/07/13 03:06:49;;;;;;;10.02;9.13;;;;;;;;;;2051556;28;20732;-55
2021/07/13 03:07:50;;;;;;;11.20;9.25;;;;;;;;;;2057831;28;20702;-51
2021/07/13 03:08:51;;;;;;;9.40;8.60;;;;;;;;;;2057410;28;20170;-53
2021/07/13 03:09:53;;;;;;;9.88;8.88;;;;;;;;;;2057741;28;20193;-52
2021/07/13 03:10:57;;;;;;;10.80;9.38;;;;;;;;;;2058253;28;20166;-54
2021/07/13 03:11:57;;;;;;;10.05;9.13;;;;;;;;;;2055977;28;20202;-54
2021/07/13 03:12:58;;;;;;;10.18;9.18;;;;;;;;;;2059544;28;20264;-55
2021/07/13 03:14:00;;;;;;;10.48;9.55;;;;;;;;;;2057698;28;20167;-54
2021/07/13 03:15:01;;;;;;;10.00;9.10;;;;;;;;;;2058754;28;20201;-58
2021/07/13 03:16:02;;;;;;;10.18;9.20;;;;;;;;;;2059389;28;20277;-56
2021/07/13 03:17:03;;;;;;;11.63;10.43;;;;;;;;;;2060291;28;20175;-58
2021/07/13 03:18:03;;;;;;;12.02;10.90;;;;;;;;;;2057572;28;20198;-57
2021/07/13 03:19:04;;;;;;;11.10;10.00;;;;;;;;;;2057525;28;20197;-58
2021/07/13 03:20:05;;;;;;;11.38;10.10;;;;;;;;;;2056985;28;20204;-58
2021/07/13 03:21:05;;;;;;;11.20;10.20;;;;;;;;;;2062811;28;20224;-57
2021/07/13 03:22:08;;;;;;;10.57;9.57;;;;;;;;;;2059307;28;20202;-58
2021/07/13 03:23:09;;;;;;;10.85;9.95;;;;;;;;;;2059970;28;20193;-58
2021/07/13 03:24:10;;;;;;;12.18;10.98;;;;;;;;;;2058356;28;20253;-58
2021/07/13 03:25:13;;;;;;;11.80;10.70;;;;;;;;;;2060427;28;20187;-53
2021/07/13 03:26:13;;;;;;;10.88;9.77;;;;;;;;;;2055226;28;20202;-58
2021/07/13 03:27:15;;;;;;;11.50;10.30;;;;;;;;;;2059138;28;20217;-56
2021/07/13 03:28:15;;;;;;;10.45;9.50;;;;;;;;;;2057752;28;20262;-59
2021/07/13 03:29:16;;;;;;;10.43;9.52;;;;;;;;;;2059919;28;20188;-58
2021/07/13 03:30:17;;;;;;;10.82;9.80;;;;;;;;;;2055439;28;20201;-58
2021/07/13 03:31:17;;;;;;;10.45;9.48;;;;;;;;;;2058641;28;20520;-57
2021/07/13 03:32:18;;;;;;;10.38;9.45;;;;;;;;;;2059176;28;20671;-58
2021/07/13 03:33:19;;;;;;;10.98;9.98;;;;;;;;;;2062626;28;20265;-55
2021/07/13 03:34:20;;;;;;;10.80;9.90;;;;;;;;;;2055354;28;20189;-57
2021/07/13 03:35:20;;;;;;;12.18;11.02;;;;;;;;;;2058590;28;20185;-57
2021/07/13 03:36:21;;;;;;;12.90;10.18;;;;;;;;;;2056253;28;20182;-58
2021/07/13 03:37:21;;;;;;;11.48;10.38;;;;;;;;;;2053732;28;20175;-55
2021/07/13 03:38:22;;;;;;;12.13;11.05;;;;;;;;;;2056657;28;20214;-56
2021/07/13 03:39:22;;;;;;;12.85;10.95;;;;;;;;;;2061971;28;20189;-55
2021/07/13 03:40:23;;;;;;;11.27;10.23;;;;;;;;;;2058057;28;20186;-56
2021/07/13 03:41:23;;;;;;;11.07;10.07;;;;;;;;;;2056939;28;20241;-57
2021/07/13 03:42:24;;;;;;;11.00;10.00;;;;;;;;;;2055248;28;20162;-58
2021/07/13 03:43:28;;;;;;;11.95;10.13;;;;;;;;;;2061615;28;20210;-57
2021/07/13 03:44:28;;;;;;;10.73;9.82;;;;;;;;;;2052693;28;20195;-57
2021/07/13 03:45:29;;;;;;;11.73;10.63;;;;;;;;;;2057012;28;20170;-58
2021/07/13 03:46:36;;;;;;;12.60;11.43;;;;;;;;;;2059501;28;20175;-58
2021/07/13 03:47:37;;;;;;;11.20;10.25;;;;;;;;;;2056063;28;20217;-57
2021/07/13 03:48:38;;;;;;;10.57;9.65;;;;;;;;;;2058894;28;20660;-58
2021/07/13 03:49:39;;;;;;;10.45;9.65;;;;;;;;;;2061875;28;20177;-56
2021/07/13 03:50:39;;;;;;;10.93;9.95;;;;;;;;;;2060439;28;20221;-57
2021/07/13 03:51:41;;;;;;;10.68;9.68;;;;;;;;;;2053538;28;20186;-58
2021/07/13 03:52:42;;;;;;;11.10;9.23;;;;;;;;;;2056119;28;20529;-58
2021/07/13 03:53:42;;;;;;;10.30;9.27;;;;;;;;;;2058621;28;20202;-55
2021/07/13 03:54:43;;;;;;;11.20;10.05;;;;;;;;;;2057509;28;20189;-56
2021/07/13 03:55:44;;;;;;;10.30;9.30;;;;;;;;;;2052768;28;20183;-58
2021/07/13 03:56:45;;;;;;;10.25;9.27;;;;;;;;;;2054194;28;20182;-55
2021/07/13 03:57:46;;;;;;;10.77;9.77;;;;;;;;;;2049628;28;20211;-53
2021/07/13 03:58:46;;;;;;;10.55;9.65;;;;;;;;;;2056928;28;20174;-54
2021/07/13 03:59:47;;;;;;;10.80;9.80;;;;;;;;;;2057133;28;20205;-56
2021/07/13 04:00:47;;;;;;;10.65;9.45;;;;;;;;;;2063978;28;20186;-57
2021/07/13 04:01:47;;;;;;;10.73;9.82;;;;;;;;;;2056716;28;20177;-53
2021/07/13 04:02:48;;;;;;;10.82;9.73;;;;;;;;;;2060238;28;20177;-57
2021/07/13 04:03:48;;;;;;;10.68;9.73;;;;;;;;;;2057260;28;20245;-57
2021/07/13 04:04:48;;;;;;;10.68;9.57;;;;;;;;;;2057498;28;20163;-56
2021/07/13 04:05:48;;;;;;;10.50;9.50;;;;;;;;;;2056686;28;20178;-54
2021/07/13 04:06:49;;;;;;;11.50;9.63;;;;;;;;;;2050484;28;20218;-54
2021/07/13 04:07:49;;;;;;;10.43;9.52;;;;;;;;;;2060037;28;20332;-56
2021/07/13 04:08:49;;;;;;;10.55;9.55;;;;;;;;;;2060428;28;20216;-55
2021/07/13 04:09:50;;;;;;;10.85;9.85;;;;;;;;;;2064439;28;20170;-55
2021/07/13 04:10:50;;;;;;;10.82;9.77;;;;;;;;;;2068432;28;20677;-52
2021/07/13 04:11:50;;;;;;;10.40;9.38;;;;;;;;;;2056366;28;20185;-57
2021/07/13 04:12:50;;;;;;;10.35;9.30;;;;;;;;;;2056641;28;20167;-55
2021/07/13 04:13:51;;;;;;;9.80;8.82;;;;;;;;;;2050202;28;20179;-53
2021/07/13 04:14:51;;;;;;;10.63;9.63;;;;;;;;;;2056820;28;20179;-53
2021/07/13 04:15:52;;;;;;;11.30;10.23;;;;;;;;;;2056364;28;20178;-49
2021/07/13 04:16:52;;;;;;;10.65;9.65;;;;;;;;;;2055992;28;20186;-52
2021/07/13 04:17:52;;;;;;;11.48;10.38;;;;;;;;;;2058020;28;20198;-56
2021/07/13 04:18:53;;;;;;;10.75;9.57;;;;;;;;;;2056590;28;20178;-54
2021/07/13 04:19:53;;;;;;;10.90;9.77;;;;;;;;;;2056115;28;20170;-52
2021/07/13 04:20:53;;;;;;;10.27;9.35;;;;;;;;;;2056404;28;20178;-53
2021/07/13 04:21:53;;;;;;;9.93;9.02;;;;;;;;;;2056920;28;20185;-50
2021/07/13 04:22:53;;;;;;;9.93;8.93;;;;;;;;;;2057773;28;20178;-51
2021/07/13 04:23:54;;;;;;;11.43;10.23;;;;;;;;;;2056812;28;20254;-52
2021/07/13 04:24:54;;;;;;;10.85;9.85;;;;;;;;;;2057194;28;20185;-51
2021/07/13 04:25:54;;;;;;;10.57;9.57;;;;;;;;;;2056022;28;20706;-54
2021/07/13 04:26:55;;;;;;;11.35;9.52;;;;;;;;;;2056735;28;20171;-57
2021/07/13 04:27:55;;;;;;;10.57;9.57;;;;;;;;;;2055669;28;20210;-55
2021/07/13 04:28:55;;;;;;;14.77;9.25;;;;;;;;;;2058079;28;20192;-52
2021/07/13 04:29:56;;;;;;;13.10;10.80;;;;;;;;;;2056219;28;20209;-57
2021/07/13 04:30:57;;;;;;;11.95;10.05;;;;;;;;;;2052697;28;20207;-54
2021/07/13 04:31:57;;;;;;;11.65;10.63;;;;;;;;;;2049714;28;20206;-57
2021/07/13 04:32:57;;;;;;;11.45;10.30;;;;;;;;;;2057701;28;20162;-55
2021/07/13 04:33:58;;;;;;;11.38;10.38;;;;;;;;;;2055957;28;20182;-51
2021/07/13 04:34:58;;;;;;;11.75;10.65;;;;;;;;;;2057255;28;20178;-53
2021/07/13 04:35:58;;;;;;;11.80;10.73;;;;;;;;;;2053877;28;20170;-50
2021/07/13 04:36:59;;;;;;;11.85;10.88;;;;;;;;;;2049751;28;20171;-52
2021/07/13 04:37:59;;;;;;;12.32;10.95;;;;;;;;;;2059301;28;20580;-52
2021/07/13 04:38:59;;;;;;;13.05;11.73;;;;;;;;;;2069190;28;20557;-51
2021/07/13 04:39:59;;;;;;;11.95;10.75;;;;;;;;;;2057253;28;20169;-50
2021/07/13 04:41:00;;;;;;;13.55;12.35;;;;;;;;;;2064400;28;20220;-55
2021/07/13 04:42:00;;;;;;;13.88;12.15;;;;;;;;;;2063076;28;20190;-52
2021/07/13 04:43:00;;;;;;;13.20;11.98;;;;;;;;;;2056489;28;20221;-50
2021/07/13 04:44:01;;;;;;;15.18;13.73;;;;;;;;;;2054404;28;20257;-49
2021/07/13 04:45:01;;;;;;;14.45;13.15;;;;;;;;;;2051205;28;20187;-53
2021/07/13 04:46:01;;;;;;;15.07;13.65;;;;;;;;;;2056767;28;20167;-52
2021/07/13 04:47:02;;;;;;;17.25;15.57;;;;;;;;;;2054185;28;20528;-52
2021/07/13 04:48:02;;;;;;;18.33;16.52;;;;;;;;;;2053592;28;20202;-54
2021/07/13 04:49:02;;;;;;;18.30;16.48;;;;;;;;;;2056205;28;20224;-51
2021/07/13 04:50:04;;;;;;;18.25;16.50;;;;;;;;;;2059974;28;20208;-51
2021/07/13 04:51:04;;;;;;;20.58;17.50;;;;;;;;;;2056372;28;21854;-55
2021/07/13 04:52:04;;;;;;;19.92;18.15;;;;;;;;;;2056738;28;20261;-58
2021/07/13 04:53:05;;;;;;;20.38;18.50;;;;;;;;;;2055413;28;20717;-53
2021/07/13 04:54:05;;;;;;;20.20;18.33;;;;;;;;;;2056296;28;20236;-52
2021/07/13 04:55:05;;;;;;;20.88;18.88;;;;;;;;;;2053978;28;20175;-50
2021/07/13 04:56:06;;;;;;;21.58;19.42;;;;;;;;;;2051471;28;20189;-53
2021/07/13 04:57:06;;;;;;;21.08;18.88;;;;;;;;;;2055901;28;20170;-56
2021/07/13 04:58:07;;;;;;;21.73;19.45;;;;;;;;;;2056608;28;20206;-53
2021/07/13 04:59:07;;;;;;;23.05;20.75;;;;;;;;;;2051319;28;20182;-52
2021/07/13 05:00:07;;;;;;;19.98;18.10;;;;;;;;;;2058030;28;20589;-50
2021/07/13 05:01:08;;;;;;;22.25;19.85;;;;;;;;;;2051654;28;20182;-50
2021/07/13 05:02:08;;;;;;;23.65;21.23;;;;;;;;;;2053282;28;20189;-50
2021/07/13 05:03:09;;;;;;;22.15;19.83;;;;;;;;;;2055974;28;20214;-50
2021/07/13 05:04:09;;;;;;;21.20;19.00;;;;;;;;;;2055738;28;20601;-54
2021/07/13 05:05:14;;;;;;;21.30;19.17;;;;;;;;;;2054971;28;21675;-58
2021/07/13 05:06:14;;;;;;;21.73;19.73;;;;;;;;;;2063840;28;20208;-55
2021/07/13 05:07:15;;;;;;;24.15;21.75;;;;;;;;;;2056632;28;20268;-55
2021/07/13 05:08:15;;;;;;;25.98;23.27;;;;;;;;;;2057830;28;20233;-53
2021/07/13 05:09:15;;;;;;;40.92;36.63;;;;;;;;;;2057061;28;20190;-54
2021/07/13 05:10:16;;;;;;;38.80;34.50;;;;;;;;;;2057097;28;20189;-53
2021/07/13 05:11:17;;;;;;;25.17;22.70;;;;;;;;;;2053015;28;20189;-55
2021/07/13 05:12:17;;;;;;;21.23;19.08;;;;;;;;;;2055951;28;20182;-54
2021/07/13 05:13:17;;;;;;;19.75;17.88;;;;;;;;;;2056665;28;20244;-56
2021/07/13 05:14:17;;;;;;;23.95;21.60;;;;;;;;;;2056402;28;20185;-56
2021/07/13 05:15:18;;;;;;;23.25;18.80;;;;;;;;;;2056674;28;20545;-55
2021/07/13 05:16:18;;;;;;;23.95;21.63;;;;;;;;;;2056149;28;20273;-53
2021/07/13 05:17:18;;;;;;;23.92;21.45;;;;;;;;;;2056964;28;20181;-54
2021/07/13 05:18:19;;;;;;;20.98;19.00;;;;;;;;;;2056973;28;20162;-52
2021/07/13 05:19:19;;;;;;;21.33;19.38;;;;;;;;;;2058866;28;20186;-56
2021/07/13 05:20:19;;;;;;;19.63;17.73;;;;;;;;;;2057836;28;20226;-54
2021/07/13 05:21:19;;;;;;;21.00;18.75;;;;;;;;;;2056177;28;20670;-51
2021/07/13 05:22:20;;;;;;;20.10;17.65;;;;;;;;;;2054740;28;20183;-52
2021/07/13 05:23:20;;;;;;;20.25;18.25;;;;;;;;;;2054325;28;20167;-52
2021/07/13 05:24:21;;;;;;;17.85;15.95;;;;;;;;;;2053729;28;20349;-52
2021/07/13 05:25:21;;;;;;;19.25;17.48;;;;;;;;;;2053059;28;20181;-54
2021/07/13 05:26:22;;;;;;;19.42;17.45;;;;;;;;;;2056124;28;20244;-51
2021/07/13 05:27:23;;;;;;;21.15;19.25;;;;;;;;;;2054118;28;20189;-52
2021/07/13 05:28:23;;;;;;;21.50;19.33;;;;;;;;;;2054463;28;20189;-52
2021/07/13 05:29:23;;;;;;;18.13;16.40;;;;;;;;;;2069800;23;20218;-55
2021/07/13 05:30:23;;;;;;;17.80;16.17;;;;;;;;;;2067302;28;20196;-59
2021/07/13 05:31:24;;;;;;;17.00;15.48;;;;;;;;;;2070464;28;20200;-57
2021/07/13 05:32:24;;;;;;;18.02;16.42;;;;;;;;;;2071814;28;20184;-60
2021/07/13 05:33:24;;;;;;;17.38;15.77;;;;;;;;;;2069993;28;20543;-60
2021/07/13 05:34:24;;;;;;;18.00;16.20;;;;;;;;;;2068966;28;20207;-57
2021/07/13 05:35:25;;;;;;;17.77;15.77;;;;;;;;;;2069432;28;20227;-59
2021/07/13 05:36:25;;;;;;;19.48;17.13;;;;;;;;;;2070355;28;20184;-59
2021/07/13 05:37:26;;;;;;;16.52;15.05;;;;;;;;;;2071814;28;20602;-59
2021/07/13 05:38:26;;;;;;;18.77;16.95;;;;;;;;;;2072012;28;20267;-60
2021/07/13 05:39:26;;;;;;;17.70;16.08;;;;;;;;;;2069267;28;20658;-60
2021/07/13 05:40:26;;;;;;;17.90;16.10;;;;;;;;;;2072450;28;20739;-60
2021/07/13 05:41:27;;;;;;;16.83;15.32;;;;;;;;;;2066267;28;20200;-60
2021/07/13 05:42:27;;;;;;;18.05;16.35;;;;;;;;;;2066772;28;20177;-58
2021/07/13 05:43:27;;;;;;;19.40;17.55;;;;;;;;;;2069079;28;20254;-59
2021/07/13 05:44:28;;;;;;;18.40;16.70;;;;;;;;;;2070573;28;20701;-58
2021/07/13 05:45:28;;;;;;;18.15;16.35;;;;;;;;;;2071642;28;20268;-60
2021/07/13 05:46:28;;;;;;;17.73;15.95;;;;;;;;;;2071507;28;20665;-58
2021/07/13 05:47:28;;;;;;;18.90;17.10;;;;;;;;;;2069602;28;20548;-59
2021/07/13 05:48:29;;;;;;;19.23;17.42;;;;;;;;;;2068412;28;20181;-58
2021/07/13 05:49:29;;;;;;;17.65;15.90;;;;;;;;;;2068895;28;20262;-57
2021/07/13 05:50:29;;;;;;;18.48;16.65;;;;;;;;;;2069373;28;20184;-58
2021/07/13 05:51:29;;;;;;;19.00;17.10;;;;;;;;;;2068975;28;20161;-55
2021/07/13 05:52:30;;;;;;;18.80;17.00;;;;;;;;;;2069096;28;20185;-57
2021/07/13 05:53:31;;;;;;;19.35;17.67;;;;;;;;;;2068361;28;20177;-57
2021/07/13 05:54:31;;;;;;;19.58;17.77;;;;;;;;;;2070924;28;20177;-58
2021/07/13 05:55:32;;;;;;;20.67;18.75;;;;;;;;;;2070820;28;20181;-58
2021/07/13 05:56:32;;;;;;;19.90;18.20;;;;;;;;;;2073527;28;20200;-57
2021/07/13 05:57:32;;;;;;;20.58;18.65;;;;;;;;;;2070601;28;20185;-59
2021/07/13 05:58:33;;;;;;;19.08;17.30;;;;;;;;;;2071940;28;20165;-57
2021/07/13 05:59:33;;;;;;;19.02;17.25;;;;;;;;;;2069404;28;20259;-58
2021/07/13 06:00:33;;;;;;;19.55;17.65;;;;;;;;;;2073690;28;20189;-58
2021/07/13 06:01:34;;;;;;;21.88;19.85;;;;;;;;;;2071433;28;20185;-56
2021/07/13 06:02:34;;;;;;;20.45;18.42;;;;;;;;;;2069131;28;20184;-61